sensor_id;sensor_type;location;lat;lon;timestamp;P1;durP1;ratioP1;P2;durP2;ratioP2
65996;SDS011;52765;52.258;21.052;2023-02-27T00:02:08;9.27;;;2.90;;
65996;SDS011;52765;52.258;21.052;2023-02-27T00:04:33;5.43;;;2.50;;
65996;SDS011;52765;52.258;21.052;2023-02-27T00:06:59;7.15;;;2.80;;
65996;SDS011;52765;52.258;21.052;2023-02-27T00:09:24;7.45;;;2.67;;
65996;SDS011;52765;52.258;21.052;2023-02-27T00:11:50;11.77;;;2.83;;
65996;SDS011;52765;52.258;21.052;2023-02-27T00:14:15;6.47;;;2.70;;
65996;SDS011;52765;52.258;21.052;2023-02-27T00:16:41;8.10;;;2.80;;
65996;SDS011;52765;52.258;21.052;2023-02-27T00:19:06;8.45;;;3.15;;
65996;SDS011;52765;52.258;21.052;2023-02-27T00:21:32;7.13;;;3.40;;
65996;SDS011;52765;52.258;21.052;2023-02-27T00:23:59;8.40;;;3.33;;
65996;SDS011;52765;52.258;21.052;2023-02-27T00:26:25;9.23;;;4.07;;
65996;SDS011;52765;52.258;21.052;2023-02-27T00:28:50;8.73;;;3.40;;
65996;SDS011;52765;52.258;21.052;2023-02-27T00:31:16;8.75;;;3.63;;
65996;SDS011;52765;52.258;21.052;2023-02-27T00:33:41;11.13;;;4.10;;
65996;SDS011;52765;52.258;21.052;2023-02-27T00:36:07;8.95;;;4.07;;
65996;SDS011;52765;52.258;21.052;2023-02-27T00:38:32;9.45;;;3.67;;
65996;SDS011;52765;52.258;21.052;2023-02-27T00:40:58;8.27;;;3.47;;
65996;SDS011;52765;52.258;21.052;2023-02-27T00:43:24;9.90;;;4.43;;
65996;SDS011;52765;52.258;21.052;2023-02-27T00:45:49;7.63;;;4.15;;
65996;SDS011;52765;52.258;21.052;2023-02-27T00:48:15;11.00;;;4.18;;
65996;SDS011;52765;52.258;21.052;2023-02-27T00:50:41;9.15;;;3.75;;
65996;SDS011;52765;52.258;21.052;2023-02-27T00:53:07;12.43;;;3.63;;
65996;SDS011;52765;52.258;21.052;2023-02-27T00:55:32;8.70;;;4.35;;
65996;SDS011;52765;52.258;21.052;2023-02-27T00:57:58;8.43;;;4.15;;
65996;SDS011;52765;52.258;21.052;2023-02-27T01:00:24;8.65;;;4.10;;
65996;SDS011;52765;52.258;21.052;2023-02-27T01:02:52;9.65;;;4.15;;
65996;SDS011;52765;52.258;21.052;2023-02-27T01:05:17;6.47;;;3.60;;
65996;SDS011;52765;52.258;21.052;2023-02-27T01:07:43;9.00;;;4.05;;
65996;SDS011;52765;52.258;21.052;2023-02-27T01:10:09;7.97;;;4.50;;
65996;SDS011;52765;52.258;21.052;2023-02-27T01:12:35;14.55;;;4.50;;
65996;SDS011;52765;52.258;21.052;2023-02-27T01:15:00;11.30;;;4.32;;
65996;SDS011;52765;52.258;21.052;2023-02-27T01:17:26;9.77;;;4.35;;
65996;SDS011;52765;52.258;21.052;2023-02-27T01:19:52;12.48;;;4.40;;
65996;SDS011;52765;52.258;21.052;2023-02-27T01:22:18;11.50;;;4.03;;
65996;SDS011;52765;52.258;21.052;2023-02-27T01:24:44;10.25;;;5.30;;
65996;SDS011;52765;52.258;21.052;2023-02-27T01:27:11;11.73;;;4.47;;
65996;SDS011;52765;52.258;21.052;2023-02-27T01:29:37;10.98;;;4.68;;
65996;SDS011;52765;52.258;21.052;2023-02-27T01:32:02;6.53;;;3.75;;
65996;SDS011;52765;52.258;21.052;2023-02-27T01:34:28;10.52;;;4.07;;
65996;SDS011;52765;52.258;21.052;2023-02-27T01:36:53;10.23;;;4.03;;
65996;SDS011;52765;52.258;21.052;2023-02-27T01:39:19;7.60;;;3.88;;
65996;SDS011;52765;52.258;21.052;2023-02-27T01:41:44;12.15;;;3.92;;
65996;SDS011;52765;52.258;21.052;2023-02-27T01:44:11;8.40;;;3.88;;
65996;SDS011;52765;52.258;21.052;2023-02-27T01:46:38;7.40;;;4.20;;
65996;SDS011;52765;52.258;21.052;2023-02-27T01:49:05;6.32;;;3.42;;
65996;SDS011;52765;52.258;21.052;2023-02-27T01:51:36;6.40;;;3.55;;
65996;SDS011;52765;52.258;21.052;2023-02-27T01:54:06;10.25;;;3.67;;
65996;SDS011;52765;52.258;21.052;2023-02-27T01:56:34;6.28;;;3.67;;
65996;SDS011;52765;52.258;21.052;2023-02-27T01:59:01;9.65;;;3.50;;
65996;SDS011;52765;52.258;21.052;2023-02-27T02:01:34;8.03;;;3.60;;
65996;SDS011;52765;52.258;21.052;2023-02-27T02:06:53;8.60;;;3.08;;
65996;SDS011;52765;52.258;21.052;2023-02-27T02:09:23;10.10;;;3.17;;
65996;SDS011;52765;52.258;21.052;2023-02-27T02:11:51;6.15;;;3.00;;
65996;SDS011;52765;52.258;21.052;2023-02-27T02:14:20;7.03;;;3.15;;
65996;SDS011;52765;52.258;21.052;2023-02-27T02:43:56;10.50;;;4.43;;
65996;SDS011;52765;52.258;21.052;2023-02-27T02:46:52;7.90;;;4.05;;
65996;SDS011;52765;52.258;21.052;2023-02-27T02:52:04;9.75;;;4.80;;
65996;SDS011;52765;52.258;21.052;2023-02-27T02:55:15;10.27;;;4.20;;
65996;SDS011;52765;52.258;21.052;2023-02-27T02:57:53;23.30;;;5.97;;
65996;SDS011;52765;52.258;21.052;2023-02-27T03:00:24;16.23;;;5.13;;
65996;SDS011;52765;52.258;21.052;2023-02-27T03:02:56;25.35;;;5.70;;
65996;SDS011;52765;52.258;21.052;2023-02-27T03:05:30;14.48;;;5.90;;
65996;SDS011;52765;52.258;21.052;2023-02-27T03:08:13;10.80;;;5.28;;
65996;SDS011;52765;52.258;21.052;2023-02-27T03:13:20;13.43;;;5.07;;
65996;SDS011;52765;52.258;21.052;2023-02-27T03:15:54;12.18;;;5.65;;
65996;SDS011;52765;52.258;21.052;2023-02-27T03:19:15;13.00;;;5.10;;
65996;SDS011;52765;52.258;21.052;2023-02-27T03:21:46;8.43;;;4.78;;
65996;SDS011;52765;52.258;21.052;2023-02-27T03:24:21;11.25;;;5.10;;
65996;SDS011;52765;52.258;21.052;2023-02-27T03:26:50;11.18;;;6.00;;
65996;SDS011;52765;52.258;21.052;2023-02-27T03:34:42;12.77;;;5.93;;
65996;SDS011;52765;52.258;21.052;2023-02-27T03:39:52;12.50;;;5.32;;
65996;SDS011;52765;52.258;21.052;2023-02-27T03:42:28;12.00;;;5.75;;
65996;SDS011;52765;52.258;21.052;2023-02-27T03:48:04;9.65;;;5.50;;
65996;SDS011;52765;52.258;21.052;2023-02-27T03:50:32;11.18;;;5.88;;
65996;SDS011;52765;52.258;21.052;2023-02-27T03:53:00;10.85;;;5.03;;
65996;SDS011;52765;52.258;21.052;2023-02-27T03:55:29;10.98;;;5.72;;
65996;SDS011;52765;52.258;21.052;2023-02-27T03:58:06;11.40;;;5.32;;
65996;SDS011;52765;52.258;21.052;2023-02-27T04:00:32;11.70;;;5.22;;
65996;SDS011;52765;52.258;21.052;2023-02-27T04:02:59;10.77;;;6.13;;
65996;SDS011;52765;52.258;21.052;2023-02-27T04:05:25;10.77;;;5.57;;
65996;SDS011;52765;52.258;21.052;2023-02-27T04:14:01;12.60;;;6.13;;
65996;SDS011;52765;52.258;21.052;2023-02-27T04:16:45;12.02;;;5.57;;
65996;SDS011;52765;52.258;21.052;2023-02-27T04:22:02;10.43;;;5.60;;
65996;SDS011;52765;52.258;21.052;2023-02-27T04:33:21;10.20;;;6.30;;
65996;SDS011;52765;52.258;21.052;2023-02-27T04:35:58;10.40;;;5.38;;
65996;SDS011;52765;52.258;21.052;2023-02-27T04:38:34;8.20;;;5.00;;
65996;SDS011;52765;52.258;21.052;2023-02-27T04:41:18;7.75;;;4.57;;
65996;SDS011;52765;52.258;21.052;2023-02-27T04:43:49;11.68;;;4.10;;
65996;SDS011;52765;52.258;21.052;2023-02-27T04:46:17;10.05;;;4.50;;
65996;SDS011;52765;52.258;21.052;2023-02-27T04:48:51;6.68;;;3.65;;
65996;SDS011;52765;52.258;21.052;2023-02-27T04:51:28;10.23;;;4.43;;
65996;SDS011;52765;52.258;21.052;2023-02-27T04:56:52;10.63;;;3.40;;
65996;SDS011;52765;52.258;21.052;2023-02-27T04:59:23;7.72;;;3.45;;
65996;SDS011;52765;52.258;21.052;2023-02-27T05:01:53;10.82;;;3.53;;
65996;SDS011;52765;52.258;21.052;2023-02-27T05:04:24;9.73;;;3.88;;
65996;SDS011;52765;52.258;21.052;2023-02-27T05:06:53;7.97;;;3.45;;
65996;SDS011;52765;52.258;21.052;2023-02-27T05:12:02;8.68;;;3.13;;
65996;SDS011;52765;52.258;21.052;2023-02-27T05:14:37;7.32;;;3.45;;
65996;SDS011;52765;52.258;21.052;2023-02-27T05:20:01;3.90;;;2.92;;
65996;SDS011;52765;52.258;21.052;2023-02-27T05:27:52;6.35;;;3.08;;
65996;SDS011;52765;52.258;21.052;2023-02-27T05:30:31;7.65;;;2.65;;
65996;SDS011;52765;52.258;21.052;2023-02-27T05:35:36;5.07;;;2.33;;
65996;SDS011;52765;52.258;21.052;2023-02-27T05:40:51;6.07;;;2.35;;
65996;SDS011;52765;52.258;21.052;2023-02-27T05:43:25;1.80;;;1.05;;
65996;SDS011;52765;52.258;21.052;2023-02-27T05:45:59;3.88;;;1.23;;
65996;SDS011;52765;52.258;21.052;2023-02-27T05:48:31;3.17;;;1.02;;
65996;SDS011;52765;52.258;21.052;2023-02-27T05:51:01;1.63;;;0.65;;
65996;SDS011;52765;52.258;21.052;2023-02-27T05:53:30;2.85;;;0.70;;
65996;SDS011;52765;52.258;21.052;2023-02-27T05:56:00;2.92;;;1.05;;
65996;SDS011;52765;52.258;21.052;2023-02-27T05:58:37;3.17;;;1.00;;
65996;SDS011;52765;52.258;21.052;2023-02-27T06:01:07;3.40;;;1.58;;
65996;SDS011;52765;52.258;21.052;2023-02-27T06:03:35;6.53;;;1.52;;
65996;SDS011;52765;52.258;21.052;2023-02-27T06:06:09;6.80;;;1.80;;
65996;SDS011;52765;52.258;21.052;2023-02-27T06:08:38;3.75;;;1.63;;
65996;SDS011;52765;52.258;21.052;2023-02-27T06:11:04;3.97;;;1.67;;
65996;SDS011;52765;52.258;21.052;2023-02-27T06:13:30;6.68;;;1.73;;
65996;SDS011;52765;52.258;21.052;2023-02-27T06:15:55;3.97;;;1.30;;
65996;SDS011;52765;52.258;21.052;2023-02-27T06:18:21;4.97;;;1.25;;
65996;SDS011;52765;52.258;21.052;2023-02-27T06:20:47;3.25;;;1.10;;
65996;SDS011;52765;52.258;21.052;2023-02-27T06:23:13;2.38;;;1.30;;
65996;SDS011;52765;52.258;21.052;2023-02-27T06:25:39;2.95;;;1.48;;
65996;SDS011;52765;52.258;21.052;2023-02-27T06:28:06;6.45;;;1.23;;
65996;SDS011;52765;52.258;21.052;2023-02-27T06:30:33;1.17;;;0.93;;
65996;SDS011;52765;52.258;21.052;2023-02-27T06:32:59;1.60;;;0.60;;
65996;SDS011;52765;52.258;21.052;2023-02-27T06:35:25;3.13;;;0.70;;
65996;SDS011;52765;52.258;21.052;2023-02-27T06:37:53;1.58;;;0.88;;
65996;SDS011;52765;52.258;21.052;2023-02-27T06:40:19;5.65;;;1.48;;
65996;SDS011;52765;52.258;21.052;2023-02-27T06:42:44;4.40;;;2.17;;
65996;SDS011;52765;52.258;21.052;2023-02-27T06:45:13;3.90;;;1.50;;
65996;SDS011;52765;52.258;21.052;2023-02-27T06:47:40;1.92;;;1.15;;
65996;SDS011;52765;52.258;21.052;2023-02-27T06:50:06;3.08;;;1.17;;
65996;SDS011;52765;52.258;21.052;2023-02-27T06:52:35;2.58;;;0.98;;
65996;SDS011;52765;52.258;21.052;2023-02-27T06:55:05;3.30;;;1.25;;
65996;SDS011;52765;52.258;21.052;2023-02-27T06:57:35;1.60;;;0.70;;
65996;SDS011;52765;52.258;21.052;2023-02-27T07:00:02;6.35;;;1.10;;
65996;SDS011;52765;52.258;21.052;2023-02-27T07:02:31;3.28;;;1.35;;
65996;SDS011;52765;52.258;21.052;2023-02-27T07:05:05;4.40;;;1.67;;
65996;SDS011;52765;52.258;21.052;2023-02-27T07:07:32;3.70;;;1.50;;
65996;SDS011;52765;52.258;21.052;2023-02-27T07:09:57;3.92;;;1.30;;
65996;SDS011;52765;52.258;21.052;2023-02-27T07:12:23;4.32;;;1.52;;
65996;SDS011;52765;52.258;21.052;2023-02-27T07:14:56;4.03;;;1.73;;
65996;SDS011;52765;52.258;21.052;2023-02-27T07:17:24;3.92;;;1.60;;
65996;SDS011;52765;52.258;21.052;2023-02-27T07:19:52;4.00;;;1.98;;
65996;SDS011;52765;52.258;21.052;2023-02-27T07:22:18;5.20;;;1.90;;
65996;SDS011;52765;52.258;21.052;2023-02-27T07:24:46;6.47;;;2.00;;
65996;SDS011;52765;52.258;21.052;2023-02-27T07:27:12;4.30;;;1.83;;
65996;SDS011;52765;52.258;21.052;2023-02-27T07:29:40;6.10;;;2.30;;
65996;SDS011;52765;52.258;21.052;2023-02-27T07:32:09;3.92;;;1.80;;
65996;SDS011;52765;52.258;21.052;2023-02-27T07:34:37;5.90;;;2.25;;
65996;SDS011;52765;52.258;21.052;2023-02-27T07:37:06;3.42;;;1.55;;
65996;SDS011;52765;52.258;21.052;2023-02-27T07:39:32;4.38;;;1.23;;
65996;SDS011;52765;52.258;21.052;2023-02-27T07:42:03;1.70;;;1.05;;
65996;SDS011;52765;52.258;21.052;2023-02-27T07:44:36;3.17;;;1.10;;
65996;SDS011;52765;52.258;21.052;2023-02-27T07:47:04;4.85;;;1.42;;
65996;SDS011;52765;52.258;21.052;2023-02-27T07:49:30;2.72;;;1.10;;
65996;SDS011;52765;52.258;21.052;2023-02-27T07:51:55;1.67;;;0.70;;
65996;SDS011;52765;52.258;21.052;2023-02-27T07:54:21;1.00;;;0.63;;
65996;SDS011;52765;52.258;21.052;2023-02-27T07:56:54;1.48;;;0.80;;
65996;SDS011;52765;52.258;21.052;2023-02-27T07:59:19;2.30;;;0.65;;
65996;SDS011;52765;52.258;21.052;2023-02-27T08:01:47;1.80;;;0.70;;
65996;SDS011;52765;52.258;21.052;2023-02-27T08:04:12;2.08;;;0.80;;
65996;SDS011;52765;52.258;21.052;2023-02-27T08:06:38;1.48;;;0.73;;
65996;SDS011;52765;52.258;21.052;2023-02-27T08:09:04;1.50;;;0.73;;
65996;SDS011;52765;52.258;21.052;2023-02-27T08:11:30;2.03;;;0.90;;
65996;SDS011;52765;52.258;21.052;2023-02-27T08:13:55;3.22;;;0.90;;
65996;SDS011;52765;52.258;21.052;2023-02-27T08:16:24;2.50;;;1.13;;
65996;SDS011;52765;52.258;21.052;2023-02-27T08:19:07;2.08;;;0.77;;
65996;SDS011;52765;52.258;21.052;2023-02-27T08:21:34;1.75;;;0.70;;
65996;SDS011;52765;52.258;21.052;2023-02-27T08:24:00;3.38;;;0.52;;
65996;SDS011;52765;52.258;21.052;2023-02-27T08:26:26;2.05;;;0.70;;
65996;SDS011;52765;52.258;21.052;2023-02-27T08:28:51;2.83;;;0.60;;
65996;SDS011;52765;52.258;21.052;2023-02-27T08:31:17;2.70;;;0.80;;
65996;SDS011;52765;52.258;21.052;2023-02-27T08:33:42;1.88;;;0.85;;
65996;SDS011;52765;52.258;21.052;2023-02-27T08:36:08;1.85;;;0.70;;
65996;SDS011;52765;52.258;21.052;2023-02-27T08:38:38;2.65;;;0.90;;
65996;SDS011;52765;52.258;21.052;2023-02-27T08:41:05;1.90;;;0.82;;
65996;SDS011;52765;52.258;21.052;2023-02-27T08:43:42;1.15;;;0.57;;
65996;SDS011;52765;52.258;21.052;2023-02-27T08:46:08;3.15;;;0.70;;
65996;SDS011;52765;52.258;21.052;2023-02-27T08:48:36;3.53;;;0.77;;
65996;SDS011;52765;52.258;21.052;2023-02-27T08:51:01;3.08;;;1.00;;
65996;SDS011;52765;52.258;21.052;2023-02-27T08:53:27;4.22;;;1.00;;
65996;SDS011;52765;52.258;21.052;2023-02-27T08:58:32;1.25;;;0.68;;
65996;SDS011;52765;52.258;21.052;2023-02-27T09:01:01;4.47;;;1.00;;
65996;SDS011;52765;52.258;21.052;2023-02-27T09:03:30;0.98;;;0.50;;
65996;SDS011;52765;52.258;21.052;2023-02-27T09:05:55;1.08;;;0.68;;
65996;SDS011;52765;52.258;21.052;2023-02-27T09:08:24;3.80;;;0.73;;
65996;SDS011;52765;52.258;21.052;2023-02-27T09:10:56;1.83;;;1.20;;
65996;SDS011;52765;52.258;21.052;2023-02-27T09:13:22;1.38;;;0.90;;
65996;SDS011;52765;52.258;21.052;2023-02-27T09:15:50;4.88;;;1.20;;
65996;SDS011;52765;52.258;21.052;2023-02-27T09:18:16;2.70;;;0.90;;
65996;SDS011;52765;52.258;21.052;2023-02-27T09:20:51;2.88;;;0.90;;
65996;SDS011;52765;52.258;21.052;2023-02-27T09:23:16;1.38;;;0.90;;
65996;SDS011;52765;52.258;21.052;2023-02-27T09:25:42;3.47;;;1.10;;
65996;SDS011;52765;52.258;21.052;2023-02-27T09:28:08;4.40;;;1.48;;
65996;SDS011;52765;52.258;21.052;2023-02-27T09:30:36;10.63;;;3.53;;
65996;SDS011;52765;52.258;21.052;2023-02-27T09:33:02;2.85;;;1.50;;
65996;SDS011;52765;52.258;21.052;2023-02-27T09:35:27;4.07;;;1.55;;
65996;SDS011;52765;52.258;21.052;2023-02-27T09:37:53;3.47;;;1.23;;
65996;SDS011;52765;52.258;21.052;2023-02-27T09:40:22;2.65;;;1.48;;
65996;SDS011;52765;52.258;21.052;2023-02-27T09:42:51;1.85;;;0.98;;
65996;SDS011;52765;52.258;21.052;2023-02-27T09:45:28;2.65;;;1.40;;
65996;SDS011;52765;52.258;21.052;2023-02-27T09:48:03;4.30;;;1.30;;
65996;SDS011;52765;52.258;21.052;2023-02-27T09:53:02;2.97;;;0.98;;
65996;SDS011;52765;52.258;21.052;2023-02-27T09:55:31;3.40;;;1.27;;
65996;SDS011;52765;52.258;21.052;2023-02-27T10:00:39;2.97;;;1.15;;
65996;SDS011;52765;52.258;21.052;2023-02-27T10:06:26;2.10;;;1.10;;
65996;SDS011;52765;52.258;21.052;2023-02-27T10:14:53;2.90;;;1.00;;
65996;SDS011;52765;52.258;21.052;2023-02-27T10:17:32;4.22;;;1.63;;
65996;SDS011;52765;52.258;21.052;2023-02-27T10:20:05;3.47;;;1.35;;
65996;SDS011;52765;52.258;21.052;2023-02-27T10:22:35;5.50;;;1.60;;
65996;SDS011;52765;52.258;21.052;2023-02-27T10:25:08;3.42;;;1.38;;
65996;SDS011;52765;52.258;21.052;2023-02-27T10:27:37;4.53;;;1.40;;
65996;SDS011;52765;52.258;21.052;2023-02-27T10:30:23;3.05;;;1.10;;
65996;SDS011;52765;52.258;21.052;2023-02-27T10:32:53;4.78;;;2.30;;
65996;SDS011;52765;52.258;21.052;2023-02-27T10:38:03;3.53;;;1.58;;
65996;SDS011;52765;52.258;21.052;2023-02-27T10:40:35;4.40;;;1.50;;
65996;SDS011;52765;52.258;21.052;2023-02-27T10:43:04;5.97;;;2.03;;
65996;SDS011;52765;52.258;21.052;2023-02-27T10:45:31;5.82;;;2.75;;
65996;SDS011;52765;52.258;21.052;2023-02-27T10:47:57;7.57;;;1.65;;
65996;SDS011;52765;52.258;21.052;2023-02-27T10:50:30;5.82;;;1.95;;
65996;SDS011;52765;52.258;21.052;2023-02-27T10:53:01;3.53;;;1.75;;
65996;SDS011;52765;52.258;21.052;2023-02-27T10:55:31;3.58;;;1.70;;
65996;SDS011;52765;52.258;21.052;2023-02-27T10:58:05;3.30;;;1.55;;
65996;SDS011;52765;52.258;21.052;2023-02-27T11:03:17;5.00;;;1.92;;
65996;SDS011;52765;52.258;21.052;2023-02-27T11:05:56;7.72;;;1.60;;
65996;SDS011;52765;52.258;21.052;2023-02-27T11:09:07;3.33;;;1.63;;
65996;SDS011;52765;52.258;21.052;2023-02-27T11:11:37;3.90;;;1.20;;
65996;SDS011;52765;52.258;21.052;2023-02-27T11:14:25;3.47;;;1.88;;
65996;SDS011;52765;52.258;21.052;2023-02-27T11:16:57;3.10;;;1.45;;
65996;SDS011;52765;52.258;21.052;2023-02-27T11:19:31;4.93;;;1.42;;
65996;SDS011;52765;52.258;21.052;2023-02-27T11:22:32;2.88;;;1.67;;
65996;SDS011;52765;52.258;21.052;2023-02-27T11:30:43;6.32;;;1.92;;
65996;SDS011;52765;52.258;21.052;2023-02-27T11:33:11;3.38;;;1.63;;
65996;SDS011;52765;52.258;21.052;2023-02-27T11:35:50;3.75;;;1.45;;
65996;SDS011;52765;52.258;21.052;2023-02-27T11:38:21;3.47;;;1.60;;
65996;SDS011;52765;52.258;21.052;2023-02-27T11:40:56;10.20;;;2.10;;
65996;SDS011;52765;52.258;21.052;2023-02-27T11:43:31;5.03;;;1.80;;
65996;SDS011;52765;52.258;21.052;2023-02-27T11:45:59;4.95;;;1.52;;
65996;SDS011;52765;52.258;21.052;2023-02-27T11:48:31;5.10;;;1.30;;
65996;SDS011;52765;52.258;21.052;2023-02-27T11:53:43;2.63;;;1.42;;
65996;SDS011;52765;52.258;21.052;2023-02-27T11:59:22;4.63;;;1.38;;
65996;SDS011;52765;52.258;21.052;2023-02-27T12:02:04;5.00;;;1.58;;
65996;SDS011;52765;52.258;21.052;2023-02-27T12:04:47;2.28;;;1.48;;
65996;SDS011;52765;52.258;21.052;2023-02-27T12:07:32;1.85;;;1.40;;
65996;SDS011;52765;52.258;21.052;2023-02-27T12:10:26;7.18;;;2.13;;
65996;SDS011;52765;52.258;21.052;2023-02-27T12:15:40;5.53;;;1.80;;
65996;SDS011;52765;52.258;21.052;2023-02-27T12:18:14;4.32;;;1.83;;
65996;SDS011;52765;52.258;21.052;2023-02-27T12:23:25;4.55;;;1.83;;
65996;SDS011;52765;52.258;21.052;2023-02-27T12:26:03;12.32;;;2.30;;
65996;SDS011;52765;52.258;21.052;2023-02-27T12:28:51;4.25;;;1.90;;
65996;SDS011;52765;52.258;21.052;2023-02-27T12:31:34;7.43;;;2.08;;
65996;SDS011;52765;52.258;21.052;2023-02-27T12:36:35;11.82;;;3.00;;
65996;SDS011;52765;52.258;21.052;2023-02-27T12:39:00;9.85;;;3.10;;
65996;SDS011;52765;52.258;21.052;2023-02-27T12:41:32;11.52;;;3.33;;
65996;SDS011;52765;52.258;21.052;2023-02-27T12:49:41;9.27;;;2.20;;
65996;SDS011;52765;52.258;21.052;2023-02-27T13:05:33;8.45;;;2.00;;
65996;SDS011;52765;52.258;21.052;2023-02-27T13:10:48;4.60;;;2.33;;
65996;SDS011;52765;52.258;21.052;2023-02-27T13:13:16;4.45;;;2.22;;
65996;SDS011;52765;52.258;21.052;2023-02-27T13:15:52;5.32;;;2.65;;
65996;SDS011;52765;52.258;21.052;2023-02-27T13:18:30;20.98;;;11.23;;
65996;SDS011;52765;52.258;21.052;2023-02-27T13:24:11;4.65;;;2.05;;
65996;SDS011;52765;52.258;21.052;2023-02-27T13:26:45;3.88;;;2.00;;
65996;SDS011;52765;52.258;21.052;2023-02-27T13:29:16;7.90;;;2.50;;
65996;SDS011;52765;52.258;21.052;2023-02-27T13:31:59;4.43;;;1.65;;
65996;SDS011;52765;52.258;21.052;2023-02-27T13:37:17;5.47;;;2.25;;
65996;SDS011;52765;52.258;21.052;2023-02-27T13:45:05;4.60;;;1.90;;
65996;SDS011;52765;52.258;21.052;2023-02-27T13:50:59;5.65;;;2.40;;
65996;SDS011;52765;52.258;21.052;2023-02-27T13:53:25;4.07;;;2.00;;
65996;SDS011;52765;52.258;21.052;2023-02-27T13:55:57;5.43;;;2.10;;
65996;SDS011;52765;52.258;21.052;2023-02-27T13:58:42;4.03;;;1.83;;
65996;SDS011;52765;52.258;21.052;2023-02-27T14:01:13;7.22;;;2.60;;
65996;SDS011;52765;52.258;21.052;2023-02-27T14:03:41;3.22;;;2.00;;
65996;SDS011;52765;52.258;21.052;2023-02-27T14:06:16;5.60;;;2.55;;
65996;SDS011;52765;52.258;21.052;2023-02-27T14:08:48;5.53;;;2.90;;
65996;SDS011;52765;52.258;21.052;2023-02-27T14:11:16;7.05;;;3.15;;
65996;SDS011;52765;52.258;21.052;2023-02-27T14:19:01;5.40;;;2.40;;
65996;SDS011;52765;52.258;21.052;2023-02-27T14:22:01;6.32;;;2.30;;
65996;SDS011;52765;52.258;21.052;2023-02-27T14:24:34;9.95;;;2.38;;
65996;SDS011;52765;52.258;21.052;2023-02-27T14:29:42;4.85;;;2.30;;
65996;SDS011;52765;52.258;21.052;2023-02-27T14:32:13;4.13;;;1.98;;
65996;SDS011;52765;52.258;21.052;2023-02-27T14:34:53;4.75;;;2.08;;
65996;SDS011;52765;52.258;21.052;2023-02-27T14:37:20;6.82;;;2.58;;
65996;SDS011;52765;52.258;21.052;2023-02-27T14:39:52;5.75;;;2.33;;
65996;SDS011;52765;52.258;21.052;2023-02-27T14:45:03;8.15;;;3.20;;
65996;SDS011;52765;52.258;21.052;2023-02-27T14:47:36;10.45;;;3.13;;
65996;SDS011;52765;52.258;21.052;2023-02-27T14:50:04;11.05;;;3.65;;
65996;SDS011;52765;52.258;21.052;2023-02-27T14:52:39;10.23;;;3.05;;
65996;SDS011;52765;52.258;21.052;2023-02-27T14:58:26;9.13;;;2.20;;
65996;SDS011;52765;52.258;21.052;2023-02-27T15:03:21;8.68;;;2.22;;
65996;SDS011;52765;52.258;21.052;2023-02-27T15:05:50;5.18;;;2.15;;
65996;SDS011;52765;52.258;21.052;2023-02-27T15:08:19;10.00;;;2.60;;
65996;SDS011;52765;52.258;21.052;2023-02-27T15:10:48;10.35;;;3.00;;
65996;SDS011;52765;52.258;21.052;2023-02-27T15:13:19;10.85;;;3.80;;
65996;SDS011;52765;52.258;21.052;2023-02-27T15:15:48;6.88;;;3.63;;
65996;SDS011;52765;52.258;21.052;2023-02-27T15:18:16;6.97;;;3.42;;
65996;SDS011;52765;52.258;21.052;2023-02-27T15:20:42;6.82;;;3.00;;
65996;SDS011;52765;52.258;21.052;2023-02-27T15:23:27;8.75;;;2.65;;
65996;SDS011;52765;52.258;21.052;2023-02-27T15:25:53;7.43;;;2.58;;
65996;SDS011;52765;52.258;21.052;2023-02-27T15:28:29;5.20;;;2.35;;
65996;SDS011;52765;52.258;21.052;2023-02-27T15:31:01;5.85;;;2.90;;
65996;SDS011;52765;52.258;21.052;2023-02-27T15:33:28;5.50;;;1.95;;
65996;SDS011;52765;52.258;21.052;2023-02-27T15:35:57;4.40;;;2.33;;
65996;SDS011;52765;52.258;21.052;2023-02-27T15:40:52;8.70;;;3.22;;
65996;SDS011;52765;52.258;21.052;2023-02-27T15:43:19;5.60;;;2.60;;
65996;SDS011;52765;52.258;21.052;2023-02-27T15:45:46;8.10;;;3.20;;
65996;SDS011;52765;52.258;21.052;2023-02-27T15:48:13;9.55;;;2.72;;
65996;SDS011;52765;52.258;21.052;2023-02-27T15:50:58;4.93;;;2.47;;
65996;SDS011;52765;52.258;21.052;2023-02-27T15:53:26;9.48;;;3.30;;
65996;SDS011;52765;52.258;21.052;2023-02-27T15:55:58;9.85;;;3.15;;
65996;SDS011;52765;52.258;21.052;2023-02-27T15:58:29;6.25;;;2.47;;
65996;SDS011;52765;52.258;21.052;2023-02-27T16:01:07;5.78;;;2.40;;
65996;SDS011;52765;52.258;21.052;2023-02-27T16:03:41;13.55;;;3.03;;
65996;SDS011;52765;52.258;21.052;2023-02-27T16:06:56;11.73;;;3.90;;
65996;SDS011;52765;52.258;21.052;2023-02-27T16:09:00;6.72;;;2.65;;
65996;SDS011;52765;52.258;21.052;2023-02-27T16:11:34;6.82;;;2.80;;
65996;SDS011;52765;52.258;21.052;2023-02-27T16:14:01;9.07;;;2.97;;
65996;SDS011;52765;52.258;21.052;2023-02-27T16:16:35;14.15;;;3.55;;
65996;SDS011;52765;52.258;21.052;2023-02-27T16:24:31;6.25;;;3.40;;
65996;SDS011;52765;52.258;21.052;2023-02-27T16:26:57;12.15;;;3.53;;
65996;SDS011;52765;52.258;21.052;2023-02-27T16:29:35;8.68;;;3.40;;
65996;SDS011;52765;52.258;21.052;2023-02-27T16:32:17;4.80;;;2.72;;
65996;SDS011;52765;52.258;21.052;2023-02-27T16:34:44;4.72;;;2.70;;
65996;SDS011;52765;52.258;21.052;2023-02-27T16:37:24;8.40;;;2.95;;
65996;SDS011;52765;52.258;21.052;2023-02-27T16:39:55;4.72;;;2.78;;
65996;SDS011;52765;52.258;21.052;2023-02-27T16:42:21;8.80;;;2.90;;
65996;SDS011;52765;52.258;21.052;2023-02-27T16:44:47;7.28;;;2.63;;
65996;SDS011;52765;52.258;21.052;2023-02-27T16:47:13;6.82;;;2.97;;
65996;SDS011;52765;52.258;21.052;2023-02-27T16:49:40;7.45;;;3.08;;
65996;SDS011;52765;52.258;21.052;2023-02-27T16:52:09;6.55;;;3.00;;
65996;SDS011;52765;52.258;21.052;2023-02-27T16:54:35;13.77;;;2.97;;
65996;SDS011;52765;52.258;21.052;2023-02-27T16:57:01;14.25;;;3.83;;
65996;SDS011;52765;52.258;21.052;2023-02-27T17:02:05;7.10;;;3.45;;
65996;SDS011;52765;52.258;21.052;2023-02-27T17:04:34;9.55;;;3.67;;
65996;SDS011;52765;52.258;21.052;2023-02-27T17:07:01;13.23;;;4.43;;
65996;SDS011;52765;52.258;21.052;2023-02-27T17:09:28;10.85;;;3.30;;
65996;SDS011;52765;52.258;21.052;2023-02-27T17:11:54;9.93;;;3.00;;
65996;SDS011;52765;52.258;21.052;2023-02-27T17:14:23;9.57;;;3.08;;
65996;SDS011;52765;52.258;21.052;2023-02-27T17:16:49;7.60;;;3.53;;
65996;SDS011;52765;52.258;21.052;2023-02-27T17:19:14;8.95;;;3.92;;
65996;SDS011;52765;52.258;21.052;2023-02-27T17:21:40;11.43;;;4.82;;
65996;SDS011;52765;52.258;21.052;2023-02-27T17:24:06;10.43;;;4.55;;
65996;SDS011;52765;52.258;21.052;2023-02-27T17:26:32;8.90;;;4.35;;
65996;SDS011;52765;52.258;21.052;2023-02-27T17:28:59;8.88;;;3.75;;
65996;SDS011;52765;52.258;21.052;2023-02-27T17:31:26;8.98;;;3.78;;
65996;SDS011;52765;52.258;21.052;2023-02-27T17:33:52;10.48;;;4.63;;
65996;SDS011;52765;52.258;21.052;2023-02-27T17:36:18;20.77;;;7.13;;
65996;SDS011;52765;52.258;21.052;2023-02-27T17:38:45;18.65;;;6.72;;
65996;SDS011;52765;52.258;21.052;2023-02-27T17:41:12;16.65;;;6.25;;
65996;SDS011;52765;52.258;21.052;2023-02-27T17:43:38;19.02;;;7.05;;
65996;SDS011;52765;52.258;21.052;2023-02-27T17:46:06;13.88;;;5.53;;
65996;SDS011;52765;52.258;21.052;2023-02-27T17:48:34;13.18;;;5.45;;
65996;SDS011;52765;52.258;21.052;2023-02-27T17:51:07;13.77;;;5.65;;
65996;SDS011;52765;52.258;21.052;2023-02-27T17:53:34;13.18;;;5.68;;
65996;SDS011;52765;52.258;21.052;2023-02-27T17:56:00;12.57;;;5.30;;
65996;SDS011;52765;52.258;21.052;2023-02-27T17:58:26;13.07;;;5.30;;